Time;durP1;ratioP1;P1;durP2;ratioP2;P2;SDS_P1;SDS_P2;PMS_P1;PMS_P2;Temp;Humidity;BMP_temperature;BMP_pressure;BME280_temperature;BME280_humidity;BME280_pressure;Samples;Min_cycle;Max_cycle;Signal;HPM_P1;HPM_P2
2022/07/12 00:02:09;;;;;;;1.90;1.50;;;14.30;99.90;;;;;;4963558;28;20043;-68
2022/07/12 00:04:35;;;;;;;1.95;1.67;;;14.40;99.90;;;;;;4962531;28;20047;-69
2022/07/12 00:07:00;;;;;;;2.03;1.63;;;14.40;99.90;;;;;;4956744;28;20035;-70
2022/07/12 00:09:26;;;;;;;7.63;2.60;;;14.40;99.90;;;;;;4950845;28;20396;-68
2022/07/12 00:11:52;;;;;;;16.85;1.80;;;14.40;99.90;;;;;;4958512;28;20038;-68
2022/07/12 00:14:17;;;;;;;125.32;4.05;;;14.30;99.90;;;;;;4961545;28;20039;-68
2022/07/12 00:16:43;;;;;;;147.35;4.10;;;14.10;99.90;;;;;;4950744;28;20412;-68
2022/07/12 00:19:09;;;;;;;1.60;1.38;;;14.00;99.90;;;;;;4952190;29;20078;-68
2022/07/12 00:21:35;;;;;;;1.67;1.40;;;13.90;99.90;;;;;;4950946;28;20114;-69
2022/07/12 00:24:01;;;;;;;1.50;1.25;;;13.80;99.90;;;;;;4950366;28;20035;-69
2022/07/12 00:26:27;;;;;;;15.32;1.50;;;13.70;99.90;;;;;;4952403;28;20040;-69
2022/07/12 00:28:53;;;;;;;5.03;1.42;;;13.70;99.90;;;;;;4952357;28;20090;-70
2022/07/12 00:31:20;;;;;;;81.97;2.65;;;13.70;99.90;;;;;;4955781;28;20058;-70
2022/07/12 00:33:46;;;;;;;65.57;2.20;;;13.50;99.90;;;;;;4951073;28;20059;-69
2022/07/12 00:36:12;;;;;;;67.65;2.17;;;13.50;99.90;;;;;;4961439;28;20471;-68
2022/07/12 00:38:37;;;;;;;32.30;1.70;;;13.60;99.90;;;;;;4954573;28;20111;-68
2022/07/12 00:41:03;;;;;;;6.28;0.85;;;13.50;99.90;;;;;;4951757;29;20039;-69
2022/07/12 00:43:29;;;;;;;65.88;2.20;;;13.50;99.90;;;;;;4947450;28;20126;-69
2022/07/12 00:45:54;;;;;;;46.78;2.00;;;13.50;99.90;;;;;;4955928;28;20031;-69
2022/07/12 00:48:20;;;;;;;3.63;1.20;;;13.60;99.90;;;;;;4950298;28;20667;-70
2022/07/12 00:50:47;;;;;;;4.10;1.30;;;13.60;99.90;;;;;;4950090;28;20532;-69
2022/07/12 00:53:13;;;;;;;3.47;1.48;;;13.70;99.90;;;;;;4950650;28;20043;-68
2022/07/12 00:55:39;;;;;;;5.35;1.27;;;13.70;99.90;;;;;;4948642;28;20078;-65
2022/07/12 00:58:05;;;;;;;9.02;1.48;;;13.70;99.90;;;;;;4950501;28;20047;-69
2022/07/12 01:00:31;;;;;;;44.28;2.35;;;13.80;99.90;;;;;;4948033;28;20046;-70
2022/07/12 01:03:00;;;;;;;71.32;2.72;;;13.80;99.90;;;;;;4957776;28;20031;-70
2022/07/12 01:05:27;;;;;;;26.52;2.17;;;13.70;99.90;;;;;;4952871;28;20049;-68
2022/07/12 01:07:54;;;;;;;5.65;1.50;;;13.70;99.90;;;;;;4952762;28;20500;-68
2022/07/12 01:10:20;;;;;;;9.20;1.30;;;13.60;99.90;;;;;;4951552;28;21299;-70
2022/07/12 01:12:46;;;;;;;34.55;1.70;;;13.60;99.90;;;;;;4965905;28;20070;-69
2022/07/12 01:15:11;;;;;;;61.33;2.10;;;13.60;99.90;;;;;;4963764;28;20463;-69
2022/07/12 01:17:38;;;;;;;111.63;2.88;;;13.60;99.90;;;;;;4955304;28;20039;-69
2022/07/12 01:20:08;;;;;;;105.25;3.28;;;13.60;99.90;;;;;;4964023;28;20042;-70
2022/07/12 01:22:36;;;;;;;9.85;2.03;;;13.50;99.90;;;;;;4964385;28;20051;-69
2022/07/12 01:25:04;;;;;;;11.07;3.83;;;13.50;99.90;;;;;;4954095;29;20098;-69
2022/07/12 01:27:30;;;;;;;4.25;3.08;;;13.50;99.90;;;;;;4954801;28;20074;-70
2022/07/12 01:29:56;;;;;;;7.28;2.15;;;13.60;99.90;;;;;;4960990;28;20043;-70
2022/07/12 01:32:25;;;;;;;97.82;5.32;;;13.50;99.90;;;;;;4953158;28;20043;-69
2022/07/12 01:34:59;;;;;;;56.72;2.70;;;13.50;99.90;;;;;;4961783;28;20085;-70
2022/07/12 01:37:29;;;;;;;45.05;2.30;;;13.40;99.90;;;;;;4956443;28;20098;-69
2022/07/12 01:39:57;;;;;;;110.30;3.30;;;13.10;99.90;;;;;;4953820;28;20061;-69
2022/07/12 01:42:25;;;;;;;124.60;4.00;;;13.00;99.90;;;;;;4954695;29;20078;-70
2022/07/12 01:44:52;;;;;;;138.88;4.13;;;13.10;99.90;;;;;;4958677;28;20639;-70
2022/07/12 01:47:18;;;;;;;99.82;3.78;;;13.10;99.90;;;;;;4958446;28;20114;-68
2022/07/12 01:49:44;;;;;;;42.17;2.75;;;13.10;99.90;;;;;;4954526;28;20079;-68
2022/07/12 01:52:10;;;;;;;7.95;2.42;;;13.10;99.90;;;;;;4954745;28;20067;-69
2022/07/12 01:54:36;;;;;;;44.15;2.38;;;13.10;99.90;;;;;;4971941;28;20039;-69
2022/07/12 01:57:05;;;;;;;33.28;1.90;;;13.10;99.90;;;;;;4954298;29;20128;-70
2022/07/12 01:59:31;;;;;;;1.67;1.48;;;13.00;99.90;;;;;;4957667;28;20561;-69
2022/07/12 02:01:58;;;;;;;32.38;1.40;;;13.00;99.90;;;;;;4970786;28;20035;-69
2022/07/12 02:04:23;;;;;;;19.98;2.10;;;12.90;99.90;;;;;;4956059;28;20043;-69
2022/07/12 02:06:49;;;;;;;24.30;2.13;;;12.90;99.90;;;;;;4951067;28;20078;-70
2022/07/12 02:09:16;;;;;;;31.92;2.00;;;12.90;99.90;;;;;;4955104;28;20661;-70
2022/07/12 02:11:43;;;;;;;68.32;2.90;;;12.80;99.90;;;;;;4952428;28;20051;-69
2022/07/12 02:14:09;;;;;;;3.15;1.40;;;12.90;99.90;;;;;;4953206;29;20050;-69
2022/07/12 02:16:35;;;;;;;2.58;1.23;;;12.90;99.90;;;;;;4954391;28;20043;-69
2022/07/12 02:19:01;;;;;;;1.70;1.00;;;12.90;99.90;;;;;;4965265;28;20038;-69
2022/07/12 02:21:27;;;;;;;2.75;1.25;;;12.90;99.90;;;;;;4954934;28;20043;-68
2022/07/12 02:23:53;;;;;;;10.20;1.20;;;12.90;99.90;;;;;;4951649;28;20122;-68
2022/07/12 02:26:19;;;;;;;26.90;1.60;;;12.90;99.90;;;;;;4971794;28;20053;-70
2022/07/12 02:28:45;;;;;;;9.75;1.20;;;12.90;99.90;;;;;;4952223;28;20565;-70
2022/07/12 02:31:11;;;;;;;12.32;1.42;;;12.80;99.90;;;;;;4954450;29;20090;-70
2022/07/12 02:33:37;;;;;;;27.05;1.70;;;12.80;99.90;;;;;;4955514;28;20117;-69
2022/07/12 02:36:03;;;;;;;105.25;2.90;;;12.80;99.90;;;;;;4960602;28;20043;-70
2022/07/12 02:38:29;;;;;;;11.68;1.77;;;12.80;99.90;;;;;;4952056;28;20075;-69
2022/07/12 02:40:55;;;;;;;17.02;1.70;;;12.70;99.90;;;;;;4954977;28;20561;-70
2022/07/12 02:43:25;;;;;;;2.10;1.52;;;12.70;99.90;;;;;;4953513;28;20079;-70
2022/07/12 02:45:58;;;;;;;1.83;1.10;;;12.60;99.90;;;;;;4957998;28;20082;-68
2022/07/12 02:48:23;;;;;;;1.50;1.20;;;12.60;99.90;;;;;;4972200;28;20054;-68
2022/07/12 02:50:49;;;;;;;1.67;1.30;;;12.50;99.90;;;;;;4958930;28;20102;-69
2022/07/12 02:53:15;;;;;;;2.78;1.38;;;12.40;99.90;;;;;;4953474;28;20057;-69
2022/07/12 02:55:41;;;;;;;4.63;1.60;;;12.40;99.90;;;;;;4971355;28;20069;-68
2022/07/12 02:58:07;;;;;;;4.95;1.60;;;12.40;99.90;;;;;;4963135;28;20127;-70
2022/07/12 03:00:34;;;;;;;13.82;1.55;;;12.30;99.90;;;;;;4964320;28;20407;-70
2022/07/12 03:03:00;;;;;;;27.50;1.65;;;12.10;99.90;;;;;;4965630;28;20125;-68
2022/07/12 03:05:26;;;;;;;24.58;1.60;;;12.10;99.90;;;;;;4972807;28;20407;-69
2022/07/12 03:07:52;;;;;;;27.90;2.10;;;12.00;99.90;;;;;;4967507;28;20118;-68
2022/07/12 03:10:17;;;;;;;6.50;1.48;;;12.00;99.90;;;;;;4964438;28;20046;-68
2022/07/12 03:12:43;;;;;;;7.85;1.58;;;12.00;99.90;;;;;;4971364;28;20042;-69
2022/07/12 03:15:09;;;;;;;4.32;1.30;;;12.00;99.90;;;;;;4956086;28;20043;-69
2022/07/12 03:17:35;;;;;;;1.40;1.13;;;11.90;99.90;;;;;;4960580;28;20067;-70
2022/07/12 03:20:04;;;;;;;1.20;1.00;;;11.80;99.90;;;;;;4972056;28;20054;-69
2022/07/12 03:22:29;;;;;;;1.48;1.20;;;11.70;99.90;;;;;;4960317;28;21206;-68
2022/07/12 03:24:55;;;;;;;7.13;1.20;;;11.70;99.90;;;;;;4957663;28;20085;-70
2022/07/12 03:27:21;;;;;;;2.92;1.10;;;11.70;99.90;;;;;;4972845;28;20046;-70
2022/07/12 03:29:47;;;;;;;25.08;2.10;;;11.70;99.90;;;;;;4973416;28;20051;-68
2022/07/12 03:32:12;;;;;;;31.95;1.83;;;11.60;99.90;;;;;;4959754;28;20057;-68
2022/07/12 03:34:38;;;;;;;13.10;2.88;;;11.70;99.90;;;;;;4968343;28;20038;-69
2022/07/12 03:37:04;;;;;;;10.90;1.63;;;11.70;99.90;;;;;;4971403;28;20038;-69
2022/07/12 03:39:30;;;;;;;6.10;1.30;;;11.80;99.90;;;;;;4971240;28;20058;-68
2022/07/12 03:41:55;;;;;;;3.97;1.10;;;11.70;99.90;;;;;;4968269;28;20197;-68
2022/07/12 03:44:21;;;;;;;1.25;1.15;;;11.70;99.90;;;;;;4964148;28;20526;-68
2022/07/12 03:46:47;;;;;;;1.20;1.10;;;11.80;99.90;;;;;;4961968;28;20498;-68
2022/07/12 03:49:13;;;;;;;17.92;2.10;;;11.70;99.90;;;;;;4969950;28;20038;-69
2022/07/12 03:51:39;;;;;;;11.30;1.70;;;11.70;99.90;;;;;;4963738;28;20047;-70
2022/07/12 03:54:07;;;;;;;4.28;1.30;;;11.70;99.90;;;;;;4970217;28;20043;-70
2022/07/12 03:59:21;;;;;;;24.75;1.60;;;11.70;99.90;;;;;;4967734;28;20054;-70
2022/07/12 04:01:46;;;;;;;27.75;1.52;;;11.70;99.90;;;;;;4960500;28;20035;-70
2022/07/12 04:04:12;;;;;;;35.42;1.65;;;11.70;99.90;;;;;;4950930;28;20448;-70
2022/07/12 04:06:38;;;;;;;11.20;1.30;;;11.70;99.90;;;;;;4955690;28;20047;-70
2022/07/12 04:09:05;;;;;;;26.77;1.25;;;11.70;99.90;;;;;;4970963;28;20042;-69
2022/07/12 04:11:31;;;;;;;22.17;1.33;;;11.70;99.90;;;;;;4970771;28;20047;-69
2022/07/12 04:13:57;;;;;;;2.35;1.00;;;11.80;99.90;;;;;;4961217;28;20042;-70
2022/07/12 04:16:23;;;;;;;0.60;0.60;;;11.90;99.90;;;;;;4959891;28;20046;-70
2022/07/12 04:18:48;;;;;;;1.00;0.80;;;11.80;99.90;;;;;;4970517;28;20086;-70
2022/07/12 04:21:14;;;;;;;0.98;0.80;;;11.90;99.90;;;;;;4968384;28;20027;-70
2022/07/12 04:23:39;;;;;;;1.67;1.15;;;11.90;99.90;;;;;;4964137;28;20070;-70
2022/07/12 04:26:05;;;;;;;1.25;1.02;;;12.00;99.90;;;;;;4968790;28;20039;-70
2022/07/12 04:28:31;;;;;;;1.17;0.85;;;12.00;99.90;;;;;;4971136;28;20515;-67
2022/07/12 04:30:56;;;;;;;4.38;0.95;;;12.00;99.90;;;;;;4970571;28;20082;-68
2022/07/12 04:33:22;;;;;;;14.30;1.02;;;12.10;99.90;;;;;;4966843;28;20050;-70
2022/07/12 04:35:47;;;;;;;1.35;1.20;;;12.10;99.90;;;;;;4972142;28;20126;-68
2022/07/12 04:38:13;;;;;;;3.63;1.30;;;12.10;99.90;;;;;;4964278;28;20039;-69
2022/07/12 04:40:39;;;;;;;1.27;1.17;;;12.20;99.90;;;;;;4967817;28;20138;-68
2022/07/12 04:43:04;;;;;;;1.38;1.27;;;12.20;99.90;;;;;;4971838;28;20043;-68
2022/07/12 04:45:31;;;;;;;3.95;1.30;;;12.20;99.90;;;;;;4968325;28;20030;-68
2022/07/12 04:47:56;;;;;;;3.33;1.20;;;12.20;99.90;;;;;;4964219;28;20373;-68
2022/07/12 04:50:22;;;;;;;1.52;1.20;;;12.30;99.90;;;;;;4971960;28;20130;-69
2022/07/12 04:52:48;;;;;;;2.65;1.30;;;12.30;99.90;;;;;;4965211;28;20468;-68
2022/07/12 04:55:13;;;;;;;1.80;1.50;;;12.40;99.90;;;;;;4966049;28;20138;-68
2022/07/12 04:57:39;;;;;;;4.28;1.50;;;12.50;99.90;;;;;;4972428;28;20043;-67
2022/07/12 05:00:06;;;;;;;2.65;1.70;;;12.60;99.90;;;;;;4967224;28;20063;-68
2022/07/12 05:02:32;;;;;;;1.80;1.50;;;12.60;99.90;;;;;;4957043;28;20043;-67
2022/07/12 05:04:58;;;;;;;2.70;1.92;;;12.70;99.90;;;;;;4960256;28;20078;-68
2022/07/12 05:07:24;;;;;;;2.75;2.03;;;12.80;99.90;;;;;;4962785;28;20090;-68
2022/07/12 05:09:51;;;;;;;4.25;2.15;;;12.90;99.90;;;;;;4953697;28;20038;-67
2022/07/12 05:12:17;;;;;;;3.80;2.10;;;13.00;99.90;;;;;;4956875;28;20050;-66
2022/07/12 05:14:43;;;;;;;3.05;2.30;;;13.10;99.90;;;;;;4966112;28;20074;-68
2022/07/12 05:17:09;;;;;;;3.90;2.50;;;13.20;99.90;;;;;;4973073;28;20047;-68
2022/07/12 05:19:35;;;;;;;5.05;3.13;;;13.30;99.90;;;;;;4971332;28;20042;-67
2022/07/12 05:22:02;;;;;;;5.43;4.05;;;13.40;99.90;;;;;;4956419;28;20042;-69
2022/07/12 05:24:28;;;;;;;7.10;5.13;;;13.60;99.90;;;;;;4962475;28;20043;-68
2022/07/12 05:26:54;;;;;;;8.10;5.95;;;13.80;99.90;;;;;;4960818;28;20162;-70
2022/07/12 05:29:20;;;;;;;11.50;6.40;;;13.90;99.90;;;;;;4965009;28;20499;-70
2022/07/12 05:31:45;;;;;;;7.78;5.75;;;14.10;99.90;;;;;;4952608;28;20054;-69
2022/07/12 05:34:12;;;;;;;8.73;5.82;;;14.20;99.90;;;;;;4957926;28;20039;-69
2022/07/12 05:36:37;;;;;;;9.70;5.68;;;14.30;99.90;;;;;;4942300;28;20058;-69
2022/07/12 05:39:03;;;;;;;9.50;6.47;;;14.50;99.90;;;;;;4953318;28;20055;-69
2022/07/12 05:41:29;;;;;;;11.15;6.80;;;14.60;99.90;;;;;;4963176;28;20046;-69
2022/07/12 05:43:54;;;;;;;10.32;6.95;;;14.70;99.90;;;;;;4954851;28;20119;-69
2022/07/12 05:46:20;;;;;;;10.75;7.22;;;14.90;99.90;;;;;;4954309;28;20178;-69
2022/07/12 05:48:46;;;;;;;11.48;6.95;;;15.00;99.90;;;;;;4956177;28;20046;-69
2022/07/12 05:53:55;;;;;;;10.07;7.07;;;15.30;99.90;;;;;;4961611;28;20043;-69
2022/07/12 05:56:21;;;;;;;13.63;8.30;;;15.60;99.90;;;;;;4953062;28;20496;-69
2022/07/12 05:58:47;;;;;;;14.32;8.05;;;15.80;99.90;;;;;;4953078;29;20102;-69
2022/07/12 06:01:12;;;;;;;12.43;7.90;;;15.90;99.90;;;;;;4955919;28;20038;-69
2022/07/12 06:03:38;;;;;;;10.35;7.82;;;16.10;99.90;;;;;;4956092;28;20046;-70
2022/07/12 06:06:04;;;;;;;12.85;8.73;;;16.30;99.90;;;;;;4952769;28;20054;-69
2022/07/12 06:08:29;;;;;;;11.98;8.63;;;16.50;99.90;;;;;;4953278;29;20046;-68
2022/07/12 06:10:55;;;;;;;11.77;8.70;;;16.60;99.90;;;;;;4955769;28;20049;-68
2022/07/12 06:13:20;;;;;;;13.98;9.63;;;16.80;99.90;;;;;;4955289;28;20470;-68
2022/07/12 06:15:46;;;;;;;12.13;9.85;;;17.10;99.90;;;;;;4962882;28;20041;-70
2022/07/12 06:18:12;;;;;;;15.20;9.68;;;17.20;99.90;;;;;;4965598;28;20047;-68
2022/07/12 06:20:37;;;;;;;13.05;9.20;;;17.40;99.90;;;;;;4966392;28;20143;-68
2022/07/12 06:23:03;;;;;;;11.88;9.13;;;17.50;99.90;;;;;;4973037;28;20487;-68
2022/07/12 06:25:28;;;;;;;14.65;10.05;;;17.50;99.90;;;;;;4969574;28;20050;-69
2022/07/12 06:27:54;;;;;;;12.05;9.93;;;17.60;99.90;;;;;;4953335;28;20054;-70
2022/07/12 06:30:21;;;;;;;13.30;9.95;;;17.70;99.90;;;;;;4970976;28;20053;-68
2022/07/12 06:32:48;;;;;;;10.90;8.23;;;17.90;99.90;;;;;;4969557;28;20039;-69
2022/07/12 06:35:14;;;;;;;10.95;8.90;;;17.90;99.90;;;;;;4960019;28;20113;-69
2022/07/12 06:37:41;;;;;;;12.52;8.93;;;17.90;99.90;;;;;;4954213;28;20047;-70
2022/07/12 06:40:07;;;;;;;10.40;7.68;;;18.00;99.90;;;;;;4953460;28;20039;-68
2022/07/12 06:42:33;;;;;;;12.13;8.38;;;18.10;99.90;;;;;;4958430;28;20559;-67
2022/07/12 06:44:59;;;;;;;9.95;7.75;;;18.20;99.90;;;;;;4960875;28;20043;-67
2022/07/12 06:47:25;;;;;;;10.60;7.63;;;18.20;99.90;;;;;;4951850;28;20039;-69
2022/07/12 06:49:51;;;;;;;11.35;6.93;;;18.20;99.90;;;;;;4951089;28;20039;-68
2022/07/12 06:52:17;;;;;;;9.95;7.50;;;18.30;99.90;;;;;;4962960;28;20066;-68
2022/07/12 06:54:42;;;;;;;10.63;7.50;;;18.30;99.90;;;;;;4966668;28;20138;-67
2022/07/12 06:57:08;;;;;;;11.02;7.70;;;18.30;99.90;;;;;;4952990;28;20047;-68
2022/07/12 06:59:34;;;;;;;9.25;6.82;;;18.40;99.90;;;;;;4953094;28;20051;-68
2022/07/12 07:01:59;;;;;;;10.73;6.70;;;18.40;99.90;;;;;;4970204;28;20035;-67
2022/07/12 07:04:25;;;;;;;8.00;6.72;;;18.40;99.90;;;;;;4956118;28;20062;-68
2022/07/12 07:06:51;;;;;;;8.35;6.97;;;18.30;99.90;;;;;;4948554;28;20049;-68
2022/07/12 07:09:17;;;;;;;8.75;6.78;;;18.30;99.90;;;;;;4950739;28;20480;-68
2022/07/12 07:11:43;;;;;;;9.35;6.80;;;18.40;99.90;;;;;;4962070;28;20190;-68
2022/07/12 07:14:08;;;;;;;8.32;6.97;;;18.40;99.90;;;;;;4966447;28;20067;-69
2022/07/12 07:16:34;;;;;;;7.82;6.57;;;18.30;99.90;;;;;;4959237;28;20038;-70
2022/07/12 07:19:00;;;;;;;8.23;7.03;;;18.40;99.90;;;;;;4958751;28;20050;-67
2022/07/12 07:21:26;;;;;;;9.70;6.97;;;18.50;99.90;;;;;;4960531;28;20035;-67
2022/07/12 07:23:52;;;;;;;8.35;6.55;;;18.60;99.90;;;;;;4966516;28;20562;-68
2022/07/12 07:26:18;;;;;;;10.30;7.15;;;18.60;99.90;;;;;;4962880;28;20043;-67
2022/07/12 07:31:28;;;;;;;8.55;7.28;;;18.70;99.90;;;;;;4952418;28;20043;-67
2022/07/12 07:33:54;;;;;;;9.82;6.72;;;18.90;99.90;;;;;;4951648;28;20039;-67
2022/07/12 07:36:19;;;;;;;8.75;7.70;;;19.00;99.90;;;;;;4958492;28;20058;-67
2022/07/12 07:38:45;;;;;;;8.80;7.50;;;19.20;99.90;;;;;;4971291;28;20520;-67
2022/07/12 07:41:11;;;;;;;7.65;6.68;;;19.30;99.90;;;;;;4960712;28;20039;-67
2022/07/12 07:43:36;;;;;;;8.30;6.80;;;19.40;99.90;;;;;;4960128;28;20035;-67
2022/07/12 07:46:02;;;;;;;9.88;6.70;;;19.40;99.90;;;;;;4964137;28;20042;-67
2022/07/12 07:48:29;;;;;;;10.20;7.38;;;19.40;99.90;;;;;;4970372;28;20042;-67
2022/07/12 07:50:55;;;;;;;10.45;7.70;;;19.60;99.90;;;;;;4960646;28;20050;-67
2022/07/12 07:53:20;;;;;;;8.27;6.90;;;19.80;99.90;;;;;;4965784;28;20050;-66
2022/07/12 07:55:46;;;;;;;10.43;7.60;;;19.90;99.90;;;;;;4949896;28;20090;-66
2022/07/12 07:58:15;;;;;;;9.18;7.65;;;20.00;99.90;;;;;;4959168;28;20101;-65
2022/07/12 08:00:41;;;;;;;9.10;7.68;;;20.10;99.90;;;;;;4952871;28;20114;-65
2022/07/12 08:03:08;;;;;;;7.55;6.75;;;20.20;99.90;;;;;;4971345;28;20121;-67
2022/07/12 08:05:33;;;;;;;8.70;7.05;;;20.30;99.90;;;;;;4969127;28;20049;-67
2022/07/12 08:07:59;;;;;;;10.23;7.30;;;20.20;99.90;;;;;;4965268;28;20043;-67
2022/07/12 08:10:25;;;;;;;10.00;7.53;;;20.30;99.90;;;;;;4954995;28;20146;-67
2022/07/12 08:12:51;;;;;;;8.85;6.97;;;20.30;99.90;;;;;;4952557;28;20047;-67
2022/07/12 08:15:17;;;;;;;9.50;6.97;;;20.30;99.90;;;;;;4947911;28;20387;-67
2022/07/12 08:17:42;;;;;;;8.40;7.50;;;20.40;99.90;;;;;;4961245;28;20039;-67
2022/07/12 08:20:09;;;;;;;8.65;7.45;;;20.50;99.90;;;;;;4962636;28;20039;-66
2022/07/12 08:22:42;;;;;;;8.48;7.10;;;20.60;99.90;;;;;;4957940;28;20046;-64
2022/07/12 08:25:08;;;;;;;8.43;7.10;;;20.80;99.90;;;;;;4999085;23;20042;-63
2022/07/12 08:27:33;;;;;;;9.40;7.20;;;20.90;99.90;;;;;;4967140;28;20046;-63
2022/07/12 08:29:59;;;;;;;8.48;7.35;;;21.00;99.90;;;;;;4964381;28;20038;-63
2022/07/12 08:32:24;;;;;;;7.57;6.53;;;21.20;99.90;;;;;;4964783;28;20065;-63
2022/07/12 08:34:50;;;;;;;7.90;6.13;;;21.30;99.90;;;;;;4951943;28;20167;-63
2022/07/12 08:37:16;;;;;;;6.60;5.72;;;21.50;99.90;;;;;;4925412;29;20043;-63
2022/07/12 08:39:41;;;;;;;7.90;5.80;;;21.60;99.90;;;;;;4935846;29;20075;-63
2022/07/12 08:42:08;;;;;;;7.78;6.18;;;21.80;99.90;;;;;;4936315;29;20040;-63
2022/07/12 08:44:34;;;;;;;8.35;6.07;;;21.80;99.90;;;;;;4934716;28;20040;-63
2022/07/12 08:46:59;;;;;;;7.20;6.00;;;21.90;99.90;;;;;;4936034;29;20036;-63
2022/07/12 08:49:25;;;;;;;6.22;5.53;;;22.00;99.90;;;;;;4938840;29;20031;-63
2022/07/12 08:51:51;;;;;;;6.47;5.55;;;22.00;99.90;;;;;;4954953;29;20043;-63
2022/07/12 08:54:17;;;;;;;6.07;5.40;;;22.00;99.90;;;;;;4941410;28;20074;-63
2022/07/12 08:56:44;;;;;;;5.90;4.82;;;22.00;99.90;;;;;;4938986;29;20067;-63
2022/07/12 08:59:20;;;;;;;6.20;5.60;;;22.00;99.90;;;;;;4935785;29;20040;-63
2022/07/12 09:01:54;;;;;;;7.43;5.05;;;22.00;99.90;;;;;;4940997;29;20040;-63
2022/07/12 09:04:24;;;;;;;5.93;5.18;;;22.00;99.90;;;;;;4943359;28;20035;-63
2022/07/12 09:06:50;;;;;;;6.95;6.20;;;22.00;99.90;;;;;;4932110;29;20039;-64
2022/07/12 09:09:35;;;;;;;6.70;4.88;;;22.10;99.90;;;;;;4944218;29;20126;-63
2022/07/12 09:12:01;;;;;;;7.57;5.88;;;22.20;99.90;;;;;;4923089;29;20122;-63
2022/07/12 09:14:28;;;;;;;6.72;5.57;;;22.20;99.90;;;;;;4935349;29;20530;-63
2022/07/12 09:17:12;;;;;;;6.50;5.80;;;22.30;99.90;;;;;;4937035;29;20046;-63
2022/07/12 09:19:39;;;;;;;7.50;5.40;;;22.40;99.90;;;;;;4933659;29;20130;-63
2022/07/12 09:22:15;;;;;;;6.15;5.35;;;22.40;99.90;;;;;;4941496;29;20043;-63
2022/07/12 09:24:41;;;;;;;9.77;5.85;;;22.60;99.90;;;;;;4938672;28;20106;-63
2022/07/12 09:27:07;;;;;;;6.93;5.53;;;22.70;99.90;;;;;;4943004;29;20345;-63
2022/07/12 09:29:45;;;;;;;5.57;4.97;;;22.80;99.90;;;;;;4935873;29;20039;-63
2022/07/12 09:37:42;;;;;;;5.22;4.03;;;23.30;99.90;;;;;;4934882;29;20444;-63
2022/07/12 09:40:09;;;;;;;6.30;4.93;;;23.40;99.90;;;;;;4933226;29;20122;-63
2022/07/12 09:42:35;;;;;;;8.18;5.28;;;23.60;99.90;;;;;;4940708;29;20043;-63
2022/07/12 09:45:01;;;;;;;5.10;4.57;;;23.90;99.90;;;;;;4948368;28;20083;-63
2022/07/12 09:47:27;;;;;;;6.13;4.68;;;24.10;99.90;;;;;;4934749;29;20475;-63
2022/07/12 09:49:53;;;;;;;5.20;4.70;;;24.10;99.90;;;;;;4939329;29;20028;-63
2022/07/12 09:52:27;;;;;;;4.38;3.97;;;24.10;99.90;;;;;;4952686;29;20035;-63
2022/07/12 09:54:55;;;;;;;5.75;4.70;;;24.10;99.90;;;;;;4931800;29;20039;-63
2022/07/12 09:57:29;;;;;;;7.35;4.40;;;24.10;99.90;;;;;;4937409;29;20086;-63
2022/07/12 09:59:57;;;;;;;5.47;4.70;;;24.10;99.90;;;;;;4933739;29;20302;-63
2022/07/12 10:02:23;;;;;;;5.80;5.00;;;24.00;99.90;;;;;;4948271;29;20078;-63
2022/07/12 10:04:49;;;;;;;4.50;4.00;;;24.10;99.90;;;;;;4954441;28;20067;-63
2022/07/12 10:07:16;;;;;;;3.72;2.95;;;24.20;99.90;;;;;;4948036;29;20293;-63
2022/07/12 10:09:48;;;;;;;3.35;3.00;;;24.10;99.90;;;;;;4949189;29;20047;-63
2022/07/12 10:12:21;;;;;;;4.47;3.70;;;24.10;99.90;;;;;;4934638;29;20044;-63
2022/07/12 10:15:09;;;;;;;7.13;4.75;;;24.20;99.90;;;;;;4937245;28;20079;-63
2022/07/12 10:17:34;;;;;;;5.53;4.28;;;24.30;99.90;;;;;;4943714;29;20078;-63
2022/07/12 10:20:17;;;;;;;4.00;3.47;;;24.30;99.90;;;;;;4940826;29;20051;-63
2022/07/12 10:22:43;;;;;;;4.03;3.30;;;24.50;99.90;;;;;;4938156;29;20042;-63
2022/07/12 10:25:34;;;;;;;5.70;3.50;;;24.60;99.90;;;;;;4934395;29;20035;-63
2022/07/12 10:28:03;;;;;;;5.28;3.25;;;24.50;99.90;;;;;;4943270;29;20048;-63
2022/07/12 10:30:30;;;;;;;4.85;3.45;;;24.40;99.90;;;;;;4940438;29;20040;-63
2022/07/12 10:32:58;;;;;;;3.63;3.13;;;24.50;99.90;;;;;;4940577;29;20038;-63
2022/07/12 10:35:29;;;;;;;5.47;3.50;;;24.50;99.90;;;;;;4934338;29;20046;-63
2022/07/12 10:38:15;;;;;;;;;;;24.60;99.90;;;;;;4937427;29;20098;-63
2022/07/12 10:40:45;;;;;;;2.53;2.30;;;24.80;99.90;;;;;;4941348;29;19926;-63
2022/07/12 10:43:10;;;;;;;3.85;2.50;;;24.80;99.90;;;;;;4945224;29;20066;-63
2022/07/12 10:45:40;;;;;;;3.63;2.30;;;24.90;99.90;;;;;;4939519;29;20483;-64
2022/07/12 10:48:08;;;;;;;3.00;2.70;;;25.10;99.90;;;;;;4943227;29;20159;-63
2022/07/12 10:50:57;;;;;;;3.00;2.70;;;25.10;99.90;;;;;;4944622;28;20110;-64
2022/07/12 10:53:26;;;;;;;2.90;2.60;;;25.20;99.90;;;;;;4927926;29;20122;-64
2022/07/12 10:56:06;;;;;;;2.88;2.53;;;25.40;99.90;;;;;;4943448;28;20518;-64
2022/07/12 10:58:34;;;;;;;3.17;2.67;;;25.60;99.90;;;;;;4938279;29;20031;-63
2022/07/12 11:01:02;;;;;;;3.22;2.80;;;25.70;99.90;;;;;;4943562;29;20114;-64
2022/07/12 11:03:32;;;;;;;4.10;3.03;;;25.80;99.90;;;;;;4943667;29;20062;-64
2022/07/12 11:06:03;;;;;;;7.05;3.60;;;25.70;99.90;;;;;;4943766;28;20036;-63
2022/07/12 11:08:30;;;;;;;5.97;3.30;;;25.70;99.90;;;;;;4931904;29;20574;-64
2022/07/12 11:10:58;;;;;;;5.65;3.20;;;25.80;99.90;;;;;;4933200;29;20093;-64
2022/07/12 11:13:25;;;;;;;3.67;2.95;;;25.90;99.90;;;;;;4935136;29;20261;-64
2022/07/12 11:15:59;;;;;;;4.57;3.20;;;26.10;99.90;;;;;;4951850;29;20147;-64
2022/07/12 11:18:31;;;;;;;3.92;3.30;;;26.10;99.90;;;;;;4928887;28;20634;-63
2022/07/12 11:20:58;;;;;;;4.60;2.88;;;26.00;99.90;;;;;;4933608;29;20042;-63
2022/07/12 11:23:28;;;;;;;4.45;3.00;;;26.20;99.90;;;;;;4941280;29;20035;-64
2022/07/12 11:25:55;;;;;;;3.27;2.80;;;26.40;99.90;;;;;;4944591;29;20130;-63
2022/07/12 11:28:23;;;;;;;3.00;2.70;;;26.60;99.90;;;;;;4944177;29;20290;-63
2022/07/12 11:30:51;;;;;;;3.20;2.90;;;26.50;99.90;;;;;;4938179;29;20070;-64
2022/07/12 11:33:17;;;;;;;5.25;3.20;;;26.70;99.90;;;;;;4951877;29;20051;-64
2022/07/12 11:35:47;;;;;;;2.97;2.70;;;26.80;99.90;;;;;;4933969;29;20044;-63
2022/07/12 11:38:13;;;;;;;4.25;2.10;;;26.90;99.90;;;;;;4934817;29;20101;-63
2022/07/12 11:40:38;;;;;;;2.05;1.85;;;27.10;99.90;;;;;;4938708;29;20040;-64
2022/07/12 11:43:05;;;;;;;1.95;1.75;;;27.20;99.90;;;;;;4931119;29;20144;-64
2022/07/12 11:45:32;;;;;;;2.00;1.80;;;27.10;99.90;;;;;;4921938;29;20043;-64
2022/07/12 11:48:01;;;;;;;2.13;1.70;;;27.10;99.90;;;;;;4945600;29;20047;-63
2022/07/12 11:50:28;;;;;;;2.13;1.92;;;27.00;99.90;;;;;;4932312;29;20067;-64
2022/07/12 11:52:55;;;;;;;5.65;2.10;;;26.70;99.90;;;;;;4931409;29;20042;-63
2022/07/12 11:55:21;;;;;;;2.75;1.98;;;26.60;99.90;;;;;;4923083;29;20051;-64
2022/07/12 11:57:47;;;;;;;2.53;1.90;;;26.70;99.90;;;;;;4948778;29;20043;-64
2022/07/12 12:00:23;;;;;;;2.28;2.03;;;26.80;99.90;;;;;;4936485;29;20130;-63
2022/07/12 12:02:52;;;;;;;2.13;1.67;;;26.90;99.90;;;;;;4930809;28;20036;-63
2022/07/12 12:05:19;;;;;;;3.60;1.92;;;27.00;99.90;;;;;;4935106;29;20035;-64
2022/07/12 12:07:45;;;;;;;2.88;1.70;;;27.00;99.90;;;;;;4930843;29;20053;-64
2022/07/12 12:10:13;;;;;;;1.92;1.73;;;27.00;99.90;;;;;;4931937;29;20036;-64
2022/07/12 12:12:47;;;;;;;4.97;1.50;;;27.20;99.90;;;;;;4937801;29;20040;-64
2022/07/12 12:15:24;;;;;;;2.22;1.70;;;27.20;99.10;;;;;;4916144;29;20441;-64
2022/07/12 12:17:55;;;;;;;1.40;1.30;;;27.30;99.50;;;;;;4937714;29;20125;-64
2022/07/12 12:20:26;;;;;;;3.72;1.65;;;27.40;99.60;;;;;;4940072;29;20800;-63
2022/07/12 12:22:57;;;;;;;2.75;1.60;;;27.40;99.60;;;;;;4943059;29;20042;-64
2022/07/12 12:25:23;;;;;;;;;;;27.40;98.50;;;;;;4947796;28;20427;-64
2022/07/12 12:27:48;;;;;;;2.13;1.70;;;27.40;98.30;;;;;;4939566;29;20341;-64
2022/07/12 12:30:16;;;;;;;1.67;1.40;;;27.30;99.40;;;;;;4934892;29;20205;-65
2022/07/12 12:32:52;;;;;;;1.55;1.42;;;27.50;99.40;;;;;;4934371;29;20044;-65
2022/07/12 12:35:23;;;;;;;2.00;1.50;;;27.60;98.00;;;;;;4933882;29;20050;-65
2022/07/12 12:38:17;;;;;;;1.48;1.35;;;27.70;98.70;;;;;;4932251;29;20424;-65
2022/07/12 12:40:51;;;;;;;1.50;1.40;;;27.80;96.80;;;;;;4932243;29;20051;-66
2022/07/12 12:43:20;;;;;;;2.38;1.33;;;27.60;96.10;;;;;;4936017;29;20036;-65
2022/07/12 12:45:51;;;;;;;1.25;1.15;;;27.60;98.00;;;;;;4941867;28;20035;-65
2022/07/12 12:48:21;;;;;;;1.15;1.10;;;27.60;97.00;;;;;;4932415;29;20040;-65
2022/07/12 12:50:49;;;;;;;2.67;1.42;;;27.70;97.20;;;;;;4937416;29;20082;-65
2022/07/12 12:53:23;;;;;;;1.38;1.27;;;27.80;97.70;;;;;;4926885;29;20491;-65
2022/07/12 12:55:51;;;;;;;3.78;1.30;;;27.90;95.80;;;;;;4932828;29;20040;-65
2022/07/12 12:58:18;;;;;;;3.03;1.33;;;27.80;96.60;;;;;;4931783;29;20766;-65